Time;durP1;ratioP1;P1;durP2;ratioP2;P2;SDS_P1;SDS_P2;PMS_P1;PMS_P2;Temp;Humidity;BMP_temperature;BMP_pressure;BME280_temperature;BME280_humidity;BME280_pressure;Samples;Min_cycle;Max_cycle;Signal;HPM_P1;HPM_P2
2022/04/06 00:02:32;;;;;;;4.57;2.80;;;;;;;6.22;100.00;99853.81;5570621;32;35493;-65
2022/04/06 00:05:35;;;;;;;4.93;3.25;;;;;;;6.25;100.00;99856.13;5570498;32;34889;-64
2022/04/06 00:08:37;;;;;;;6.75;2.90;;;;;;;6.32;100.00;99851.94;5570825;32;34287;-64
2022/04/06 00:11:40;;;;;;;3.30;2.50;;;;;;;6.08;100.00;99852.56;5570498;32;34684;-64
2022/04/06 00:14:43;;;;;;;5.78;3.03;;;;;;;5.94;100.00;99859.19;5570268;32;34278;-64
2022/04/06 00:17:46;;;;;;;5.30;2.80;;;;;;;6.15;100.00;99865.97;5570479;32;34211;-64
2022/04/06 00:20:49;;;;;;;3.85;2.58;;;;;;;6.36;100.00;99866.44;5570371;32;34386;-64
2022/04/06 00:23:52;;;;;;;3.78;2.60;;;;;;;6.14;100.00;99880.09;5570414;32;34632;-64
2022/04/06 00:26:54;;;;;;;3.22;2.42;;;;;;;5.99;100.00;99870.09;5570597;32;34898;-64
2022/04/06 00:29:57;;;;;;;3.90;2.80;;;;;;;5.92;100.00;99868.22;5570535;32;34563;-64
2022/04/06 00:33:00;;;;;;;5.70;3.20;;;;;;;5.92;100.00;99869.03;5570586;32;34302;-63
2022/04/06 00:36:03;;;;;;;5.50;3.45;;;;;;;6.06;100.00;99870.31;5556530;32;35570;-64
2022/04/06 00:39:05;;;;;;;5.65;2.90;;;;;;;6.34;100.00;99865.78;5570199;32;34166;-64
2022/04/06 00:42:08;;;;;;;4.60;3.05;;;;;;;6.42;100.00;99871.94;5570418;32;34216;-64
2022/04/06 00:45:11;;;;;;;4.95;3.45;;;;;;;6.62;100.00;99872.56;5570163;32;34222;-64
2022/04/06 00:48:14;;;;;;;4.50;3.33;;;;;;;6.66;100.00;99871.28;5570012;32;34639;-64
2022/04/06 00:51:16;;;;;;;5.70;3.60;;;;;;;6.68;100.00;99877.19;5569996;32;34140;-64
2022/04/06 00:54:22;;;;;;;6.00;3.67;;;;;;;6.63;100.00;99876.03;5569942;32;34845;-64
2022/04/06 00:57:25;;;;;;;8.10;4.32;;;;;;;6.61;100.00;99889.34;5570414;32;34697;-64
2022/04/06 01:00:31;;;;;;;5.22;3.58;;;;;;;6.46;100.00;99880.34;5569996;32;34719;-64
2022/04/06 01:03:34;;;;;;;6.10;3.67;;;;;;;6.62;100.00;99884.91;5570057;32;34211;-64
2022/04/06 01:06:37;;;;;;;5.45;3.60;;;;;;;6.52;100.00;99882.38;5570302;32;34171;-63
2022/04/06 01:09:40;;;;;;;7.40;3.87;;;;;;;6.38;100.00;99878.50;5570065;32;34338;-64
2022/04/06 01:12:46;;;;;;;9.93;4.05;;;;;;;6.65;100.00;99879.31;5569925;32;34331;-64
2022/04/06 01:15:48;;;;;;;6.37;3.45;;;;;;;6.86;100.00;99880.63;5570166;32;34219;-64
2022/04/06 01:18:51;;;;;;;5.00;3.42;;;;;;;7.04;100.00;99885.81;5569881;32;34191;-64
2022/04/06 01:21:54;;;;;;;7.07;3.95;;;;;;;6.98;100.00;99878.53;5556271;32;34836;-64
2022/04/06 01:24:57;;;;;;;4.30;2.97;;;;;;;7.09;100.00;99874.81;5569532;32;34253;-64
2022/04/06 01:28:00;;;;;;;7.80;3.25;;;;;;;7.08;100.00;99870.50;5569598;32;34229;-64
2022/04/06 01:31:03;;;;;;;5.00;3.10;;;;;;;7.09;100.00;99866.88;5569815;31;34278;-64
2022/04/06 01:34:06;;;;;;;4.15;3.08;;;;;;;7.12;100.00;99874.47;5569872;32;35457;-64
2022/04/06 01:37:10;;;;;;;7.00;3.30;;;;;;;7.20;100.00;99864.81;5569894;32;34929;-64
2022/04/06 01:40:13;;;;;;;5.20;3.30;;;;;;;7.46;100.00;99869.16;5569714;32;34371;-65
2022/04/06 01:43:15;;;;;;;5.07;3.47;;;;;;;7.46;100.00;99866.53;5569659;32;34927;-64
2022/04/06 01:46:18;;;;;;;5.55;2.87;;;;;;;7.46;100.00;99874.44;5569598;32;34824;-65
2022/04/06 01:52:43;;;;;;;4.75;3.05;;;;;;;7.65;100.00;99875.00;5569631;32;34216;-64
2022/04/06 01:55:46;;;;;;;6.32;2.97;;;;;;;7.72;100.00;99865.47;5569386;32;34401;-65
2022/04/06 01:58:48;;;;;;;4.62;3.12;;;;;;;7.62;100.00;99872.69;5569548;32;34256;-64
2022/04/06 02:01:53;;;;;;;4.65;2.90;;;;;;;7.47;100.00;99871.66;5569415;32;34849;-64
2022/04/06 02:04:58;;;;;;;8.93;3.15;;;;;;;7.53;100.00;99871.03;5569424;32;34414;-64
2022/04/06 02:08:01;;;;;;;4.03;2.55;;;;;;;7.37;100.00;99863.87;5569361;32;34210;-65
2022/04/06 02:11:04;;;;;;;6.93;2.67;;;;;;;7.29;100.00;99870.94;5569275;32;34176;-64
2022/04/06 02:14:07;;;;;;;7.12;3.03;;;;;;;7.23;100.00;99866.28;5555892;32;34158;-64
2022/04/06 02:17:10;;;;;;;4.70;2.80;;;;;;;7.25;100.00;99869.59;5569202;32;34401;-65
2022/04/06 02:20:14;;;;;;;4.10;2.45;;;;;;;7.24;100.00;99868.78;5569416;32;34165;-65
2022/04/06 02:23:23;;;;;;;3.97;2.57;;;;;;;7.23;100.00;99861.00;5569010;32;35459;-65
2022/04/06 02:26:27;;;;;;;3.35;2.33;;;;;;;7.15;100.00;99863.63;5569049;32;34138;-64
2022/04/06 02:29:29;;;;;;;4.18;2.45;;;;;;;7.04;100.00;99858.63;5568762;32;34174;-65
2022/04/06 02:32:32;;;;;;;5.78;2.62;;;;;;;6.93;100.00;99857.09;5568934;32;34095;-64
2022/04/06 02:35:34;;;;;;;5.12;3.05;;;;;;;6.77;100.00;99854.38;5569128;32;34904;-65
2022/04/06 02:38:38;;;;;;;3.92;2.60;;;;;;;6.75;100.00;99857.16;5570120;32;35449;-64
2022/04/06 02:41:41;;;;;;;5.55;3.22;;;;;;;6.65;100.00;99861.72;5571198;32;34250;-65
2022/04/06 02:44:44;;;;;;;4.30;2.92;;;;;;;6.67;100.00;99846.56;5571345;32;34471;-65
2022/04/06 02:47:47;;;;;;;4.35;2.47;;;;;;;6.49;100.00;99864.22;5571173;32;34873;-65
2022/04/06 02:50:49;;;;;;;4.75;2.78;;;;;;;6.48;100.00;99852.06;5571317;32;34196;-64
2022/04/06 02:53:52;;;;;;;3.70;2.40;;;;;;;6.71;100.00;99857.63;5557431;32;34166;-64
2022/04/06 02:56:55;;;;;;;6.07;2.60;;;;;;;6.60;100.00;99857.88;5571037;32;34173;-65
2022/04/06 02:59:57;;;;;;;6.60;2.53;;;;;;;6.58;100.00;99854.59;5571145;32;34652;-64
2022/04/06 03:03:00;;;;;;;3.92;3.00;;;;;;;6.66;100.00;99858.09;5571004;32;34876;-65
2022/04/06 03:06:03;;;;;;;4.43;2.70;;;;;;;6.54;100.00;99870.69;5571147;32;35110;-65
2022/04/06 03:09:06;;;;;;;6.45;2.50;;;;;;;6.72;100.00;99875.09;5557389;32;34546;-65
2022/04/06 03:12:08;;;;;;;3.92;2.47;;;;;;;6.89;100.00;99880.31;5571085;32;34156;-65
2022/04/06 03:15:12;;;;;;;3.03;2.10;;;;;;;6.82;100.00;99870.56;5570918;32;34246;-64
2022/04/06 03:18:14;;;;;;;2.95;2.35;;;;;;;6.93;100.00;99876.38;5570966;32;34533;-65
2022/04/06 03:21:17;;;;;;;3.67;2.60;;;;;;;7.07;100.00;99876.78;5570953;32;34811;-65
2022/04/06 03:24:20;;;;;;;3.95;2.22;;;;;;;7.35;100.00;99876.41;5557213;32;34931;-65
2022/04/06 03:27:23;;;;;;;4.35;2.30;;;;;;;7.48;100.00;99880.41;5570911;32;34252;-65
2022/04/06 03:30:25;;;;;;;2.67;1.95;;;;;;;7.63;100.00;99881.44;5570631;32;34924;-65
2022/04/06 03:33:29;;;;;;;3.58;2.20;;;;;;;7.66;100.00;99881.09;5571161;32;34091;-64
2022/04/06 03:36:31;;;;;;;3.60;2.42;;;;;;;7.59;100.00;99882.75;5570533;32;34271;-65
2022/04/06 03:39:34;;;;;;;3.37;2.28;;;;;;;7.55;100.00;99874.31;5570637;32;34153;-65
2022/04/06 03:42:37;;;;;;;3.25;1.90;;;;;;;7.42;100.00;99876.59;5570672;32;34576;-65
2022/04/06 03:45:40;;;;;;;4.65;2.17;;;;;;;7.23;100.00;99879.47;5570689;32;34193;-65
2022/04/06 03:48:44;;;;;;;2.83;2.10;;;;;;;7.21;100.00;99878.84;5570289;32;34270;-65
2022/04/06 03:51:46;;;;;;;3.03;2.05;;;;;;;7.06;100.00;99873.31;5570732;32;34303;-65
2022/04/06 03:54:49;;;;;;;4.18;2.22;;;;;;;7.02;100.00;99877.22;5570753;32;34159;-64
2022/04/06 03:57:51;;;;;;;3.55;2.35;;;;;;;7.17;100.00;99869.56;5570626;32;35018;-65
2022/04/06 04:00:54;;;;;;;3.28;2.33;;;;;;;7.21;100.00;99869.06;5570649;32;34876;-64
2022/04/06 04:03:57;;;;;;;3.17;2.28;;;;;;;7.39;100.00;99879.56;5570632;32;34299;-64
2022/04/06 04:07:01;;;;;;;2.87;2.10;;;;;;;7.26;100.00;99879.97;5570510;32;34136;-65
2022/04/06 04:10:12;;;;;;;3.87;2.35;;;;;;;7.14;100.00;99873.34;5570487;32;34148;-65
2022/04/06 04:13:14;;;;;;;3.45;2.10;;;;;;;7.16;100.00;99883.75;5570422;32;35372;-65
2022/04/06 04:16:17;;;;;;;3.58;2.17;;;;;;;7.14;100.00;99881.25;5570364;32;34268;-65
2022/04/06 04:19:20;;;;;;;3.83;2.30;;;;;;;7.16;100.00;99878.47;5570524;32;33521;-65
2022/04/06 04:22:23;;;;;;;4.30;2.10;;;;;;;7.38;100.00;99884.00;5570291;32;33848;-66
2022/04/06 04:25:26;;;;;;;2.83;1.98;;;;;;;7.62;100.00;99890.34;5570425;32;33670;-65
2022/04/06 04:28:29;;;;;;;3.83;1.95;;;;;;;7.87;98.30;99877.03;5570386;32;34072;-65
2022/04/06 04:31:32;;;;;;;3.58;2.10;;;;;;;8.03;96.53;99884.16;5570178;32;34995;-65
2022/04/06 04:34:35;;;;;;;4.30;2.35;;;;;;;8.12;96.21;99890.28;5570639;32;35054;-65
2022/04/06 04:37:37;;;;;;;3.97;2.15;;;;;;;8.21;95.26;99889.28;5570148;32;34906;-65
2022/04/06 04:40:40;;;;;;;4.00;2.08;;;;;;;8.37;93.96;99878.78;5570171;32;35397;-65
2022/04/06 04:43:43;;;;;;;3.90;2.25;;;;;;;8.47;93.42;99878.59;5570191;32;34899;-65
2022/04/06 04:46:46;;;;;;;2.95;2.10;;;;;;;8.43;94.37;99887.81;5570456;32;34902;-65
2022/04/06 04:49:48;;;;;;;2.62;2.12;;;;;;;8.37;94.95;99885.88;5570191;32;34917;-65
2022/04/06 04:52:51;;;;;;;4.95;1.90;;;;;;;8.38;95.31;99887.50;5569966;32;34782;-66
2022/04/06 04:55:54;;;;;;;7.93;2.45;;;;;;;8.45;95.54;99896.44;5570215;32;34840;-65
2022/04/06 04:58:57;;;;;;;4.25;2.40;;;;;;;8.47;95.33;99892.63;5570063;32;34302;-65
2022/04/06 05:01:59;;;;;;;3.53;1.92;;;;;;;8.64;95.70;99901.37;5569044;32;34101;-65
2022/04/06 05:05:04;;;;;;;5.07;2.50;;;;;;;8.77;94.48;99900.84;5569872;32;34160;-65
2022/04/06 05:08:07;;;;;;;6.90;2.70;;;;;;;8.74;92.91;99907.31;5569861;32;34506;-65
2022/04/06 05:11:10;;;;;;;7.07;2.20;;;;;;;8.86;93.01;99913.88;5570051;32;34891;-65
2022/04/06 05:14:13;;;;;;;5.53;2.50;;;;;;;8.92;90.95;99909.75;5569663;32;35393;-65
2022/04/06 05:17:16;;;;;;;4.45;2.50;;;;;;;9.08;90.41;99915.03;5569779;32;34307;-65
2022/04/06 05:20:19;;;;;;;3.85;2.33;;;;;;;9.12;89.24;99911.03;5569806;32;34827;-65
2022/04/06 05:23:22;;;;;;;3.92;2.35;;;;;;;9.31;87.62;99917.75;5556097;32;35465;-65
2022/04/06 05:26:25;;;;;;;3.97;2.78;;;;;;;9.41;87.58;99923.69;5569989;32;34154;-65
2022/04/06 05:29:28;;;;;;;3.85;2.72;;;;;;;9.44;86.84;99926.78;5568900;32;34876;-65
2022/04/06 05:32:30;;;;;;;6.57;2.70;;;;;;;9.52;84.83;99918.84;5569014;32;34218;-65
2022/04/06 05:35:33;;;;;;;3.25;2.22;;;;;;;9.57;85.77;99924.44;5568739;32;34852;-66
2022/04/06 05:38:36;;;;;;;6.25;2.78;;;;;;;9.65;84.89;99922.75;5568841;32;35689;-66
2022/04/06 05:41:39;;;;;;;4.45;2.80;;;;;;;9.77;83.95;99934.63;5569526;32;34183;-65
2022/04/06 05:44:42;;;;;;;5.25;3.05;;;;;;;9.92;84.01;99936.34;5569301;32;35642;-65
2022/04/06 05:47:45;;;;;;;4.55;2.90;;;;;;;10.08;82.52;99934.59;5568821;32;34916;-65
2022/04/06 05:50:48;;;;;;;4.70;2.95;;;;;;;10.35;81.68;99936.78;5569023;32;34336;-64
2022/04/06 05:53:51;;;;;;;4.75;2.78;;;;;;;10.50;80.17;99939.47;5569145;32;34207;-65
2022/04/06 05:56:53;;;;;;;4.95;3.10;;;;;;;10.81;78.76;99946.31;5568692;32;34086;-65
2022/04/06 05:59:56;;;;;;;4.93;3.10;;;;;;;10.66;79.35;99944.62;5569056;32;35005;-64
2022/04/06 06:03:00;;;;;;;7.57;3.37;;;;;;;10.87;77.89;99942.13;5568706;32;34555;-65
2022/04/06 06:06:03;;;;;;;7.40;3.12;;;;;;;10.85;77.11;99939.66;5568352;32;34141;-65
2022/04/06 06:09:05;;;;;;;4.25;2.42;;;;;;;11.04;77.53;99948.09;5568602;32;34958;-65
2022/04/06 06:12:08;;;;;;;4.20;2.83;;;;;;;11.17;75.49;99945.66;5568572;32;35551;-66
2022/04/06 06:15:11;;;;;;;5.95;2.90;;;;;;;11.09;75.91;99946.53;5568374;32;34170;-65
2022/04/06 06:18:14;;;;;;;7.12;3.00;;;;;;;11.28;75.89;99953.16;5568575;32;34926;-65
2022/04/06 06:21:17;;;;;;;3.72;2.65;;;;;;;11.23;74.89;99953.69;5568466;32;34204;-65
2022/04/06 06:24:21;;;;;;;5.95;3.33;;;;;;;11.21;75.45;99958.38;5568436;32;34320;-65
2022/04/06 06:27:24;;;;;;;5.60;3.08;;;;;;;11.33;74.35;99950.78;5568495;32;34271;-65
2022/04/06 06:30:27;;;;;;;6.12;3.20;;;;;;;11.24;75.55;99955.34;5567966;32;34189;-65
2022/04/06 06:33:30;;;;;;;5.30;2.75;;;;;;;11.89;72.88;99956.44;5568341;32;34227;-64
2022/04/06 06:36:36;;;;;;;6.35;3.72;;;;;;;11.93;70.80;99947.91;5568057;32;34772;-65
2022/04/06 06:39:39;;;;;;;5.53;3.30;;;;;;;11.87;72.01;99953.13;5568453;32;35028;-65
2022/04/06 06:42:42;;;;;;;5.15;3.30;;;;;;;12.11;70.17;99955.47;5568128;32;34812;-65
2022/04/06 06:45:44;;;;;;;7.43;3.33;;;;;;;11.82;70.94;99961.69;5568812;32;34241;-64
2022/04/06 06:48:51;;;;;;;6.30;3.45;;;;;;;12.78;67.93;99965.75;5568123;32;34318;-65
2022/04/06 06:51:53;;;;;;;8.40;4.30;;;;;;;13.17;64.51;99960.75;5553972;32;34897;-65
2022/04/06 06:54:56;;;;;;;6.18;3.75;;;;;;;13.61;62.62;99954.25;5568205;32;34283;-65
2022/04/06 06:57:59;;;;;;;8.40;4.70;;;;;;;13.32;63.55;99948.13;5567876;32;34194;-65
2022/04/06 07:01:02;;;;;;;7.72;4.70;;;;;;;13.66;65.30;99954.47;5568105;32;35444;-65
2022/04/06 07:04:06;;;;;;;11.00;5.22;;;;;;;13.41;63.49;99949.63;5553575;32;35853;-65
2022/04/06 07:07:09;;;;;;;9.40;4.75;;;;;;;13.03;65.85;99953.66;5567765;32;34131;-65
2022/04/06 07:10:17;;;;;;;12.00;5.20;;;;;;;13.67;64.11;99956.13;5568188;32;34160;-65
2022/04/06 07:13:20;;;;;;;11.65;6.53;;;;;;;14.38;60.10;99953.94;5554537;32;34161;-66
2022/04/06 07:16:23;;;;;;;13.95;6.70;;;;;;;13.92;62.17;99951.94;5567769;32;34215;-66
2022/04/06 07:19:26;;;;;;;15.23;7.72;;;;;;;13.32;63.98;99952.66;5567898;32;35138;-65
2022/04/06 07:22:29;;;;;;;15.98;9.30;;;;;;;13.95;62.53;99959.53;5567943;32;34812;-67
2022/04/06 07:25:33;;;;;;;17.35;9.20;;;;;;;15.36;56.56;99961.94;5569947;32;34378;-66
2022/04/06 07:28:36;;;;;;;18.37;9.35;;;;;;;15.50;56.25;99971.56;5570635;32;34313;-66
2022/04/06 07:31:39;;;;;;;19.12;10.52;;;;;;;16.55;53.80;99974.84;5557366;32;34253;-66
2022/04/06 07:34:43;;;;;;;16.37;9.20;;;;;;;16.99;51.38;99973.91;5570632;32;34947;-66
2022/04/06 07:37:48;;;;;;;14.45;8.45;;;;;;;16.67;52.60;99971.25;5570553;32;34895;-67
2022/04/06 07:40:50;;;;;;;12.25;7.15;;;;;;;18.48;46.14;99966.22;5570518;32;34179;-67
2022/04/06 07:43:53;;;;;;;13.10;6.97;;;;;;;18.70;45.86;99966.53;5570548;32;34391;-67
2022/04/06 07:46:56;;;;;;;15.75;7.53;;;;;;;20.05;41.64;99964.50;5570496;32;34271;-67
2022/04/06 07:50:01;;;;;;;11.40;7.18;;;;;;;20.43;41.10;99966.62;5570331;32;34980;-67
2022/04/06 07:53:03;;;;;;;11.85;6.60;;;;;;;19.18;42.40;99964.50;5570551;32;34902;-67
2022/04/06 07:56:06;;;;;;;13.75;6.68;;;;;;;19.26;42.09;99961.47;5570523;32;34096;-67
2022/04/06 07:59:09;;;;;;;8.93;6.00;;;;;;;19.00;42.75;99962.75;5570735;32;34235;-67
2022/04/06 08:02:12;;;;;;;13.05;6.32;;;;;;;19.58;42.50;99961.94;5556758;32;34404;-67
2022/04/06 08:05:16;;;;;;;10.73;5.40;;;;;;;20.55;39.20;99973.56;5570761;32;34136;-68
2022/04/06 08:08:21;;;;;;;11.68;4.62;;;;;;;21.21;37.64;99958.47;5570637;32;34309;-67
2022/04/06 08:11:25;;;;;;;6.90;4.70;;;;;;;20.26;39.63;99966.53;5570320;32;34221;-69
2022/04/06 08:14:28;;;;;;;9.32;5.07;;;;;;;19.91;40.99;99961.25;5570465;32;34828;-67
2022/04/06 08:17:39;;;;;;;8.65;4.28;;;;;;;19.67;40.88;99957.81;5569688;32;35527;-66
2022/04/06 08:20:42;;;;;;;7.03;4.72;;;;;;;18.57;43.45;99964.88;5570223;32;34217;-66
2022/04/06 08:23:45;;;;;;;9.07;4.87;;;;;;;19.96;40.37;99958.66;5570115;32;35537;-66
2022/04/06 08:26:47;;;;;;;7.05;4.72;;;;;;;19.92;40.23;99977.19;5570078;32;34184;-67
2022/04/06 08:29:50;;;;;;;6.87;4.40;;;;;;;20.61;38.56;99978.00;5570049;31;34285;-66
2022/04/06 08:32:58;;;;;;;7.18;4.85;;;;;;;18.59;43.63;99968.13;5570250;32;34316;-66
2022/04/06 08:36:06;;;;;;;6.37;4.30;;;;;;;19.96;40.76;99958.66;5568947;32;34380;-67
2022/04/06 08:39:09;;;;;;;7.75;4.47;;;;;;;19.44;41.09;99961.38;5556225;32;34290;-65
2022/04/06 08:42:12;;;;;;;12.77;4.95;;;;;;;19.13;41.75;99959.00;5556185;32;34924;-66
2022/04/06 08:45:38;;;;;;;8.20;4.60;;;;;;;20.12;40.18;99954.41;5558497;32;34074;-67
2022/04/06 08:48:43;;;;;;;8.05;4.75;;;;;;;19.20;42.40;99964.25;5570149;32;34310;-68
2022/04/06 08:51:48;;;;;;;7.82;4.70;;;;;;;21.17;38.32;99960.03;5569870;32;34314;-67
2022/04/06 08:54:51;;;;;;;5.53;3.97;;;;;;;20.86;38.46;99960.63;5570353;32;34628;-67
2022/04/06 08:57:56;;;;;;;7.20;4.57;;;;;;;20.93;37.89;99953.16;5570070;32;34532;-68
2022/04/06 09:00:59;;;;;;;9.20;4.43;;;;;;;22.85;34.60;99955.59;5569665;32;34117;-67
2022/04/06 09:04:02;;;;;;;6.70;3.95;;;;;;;24.05;33.05;99964.69;5569689;32;34771;-67
2022/04/06 09:07:25;;;;;;;6.30;3.87;;;;;;;21.59;35.42;99958.47;5569922;32;34921;-68
2022/04/06 09:10:33;;;;;;;8.02;4.10;;;;;;;18.18;43.30;99955.50;5569198;32;34324;-68
2022/04/06 09:13:37;;;;;;;8.32;4.15;;;;;;;17.45;45.49;99960.88;5569401;32;34842;-67
2022/04/06 09:16:39;;;;;;;7.35;3.97;;;;;;;17.12;46.56;99953.19;5568860;32;34839;-66
2022/04/06 09:19:46;;;;;;;4.93;3.20;;;;;;;16.40;48.32;99956.41;5569440;32;34965;-67
2022/04/06 09:22:49;;;;;;;6.75;3.00;;;;;;;16.02;48.21;99948.37;5569666;32;34414;-66
2022/04/06 09:25:52;;;;;;;4.53;2.90;;;;;;;16.18;49.17;99941.69;5570040;32;34192;-66
2022/04/06 09:28:55;;;;;;;4.87;3.17;;;;;;;16.25;49.15;99937.12;5569386;31;34177;-66
2022/04/06 09:32:08;;;;;;;5.70;3.10;;;;;;;15.74;49.48;99939.84;5569441;32;34414;-65
2022/04/06 09:35:34;;;;;;;8.48;3.58;;;;;;;15.79;50.62;99938.16;5557781;32;34173;-66
2022/04/06 09:38:41;;;;;;;6.50;3.42;;;;;;;15.99;50.67;99930.88;5569489;32;34873;-67
2022/04/06 09:42:00;;;;;;;4.72;3.10;;;;;;;15.79;50.60;99916.78;5569745;32;34322;-66
2022/04/06 09:48:28;;;;;;;6.37;3.40;;;;;;;15.97;49.64;99911.56;5568746;32;34388;-65
2022/04/06 09:51:31;;;;;;;8.65;3.45;;;;;;;16.08;49.29;99910.88;5569432;32;35196;-66
2022/04/06 09:54:36;;;;;;;6.25;3.58;;;;;;;16.03;49.23;99912.53;5569374;32;34898;-65
2022/04/06 09:57:41;;;;;;;6.78;4.07;;;;;;;15.79;50.30;99903.41;5555628;32;34384;-66
2022/04/06 10:00:44;;;;;;;8.00;3.75;;;;;;;15.85;50.41;99896.38;5555719;32;35416;-66
2022/04/06 10:03:57;;;;;;;6.10;4.20;;;;;;;16.08;51.15;99892.13;5569149;32;34789;-66
2022/04/06 10:07:01;;;;;;;7.37;4.00;;;;;;;16.08;50.63;99888.63;5569695;32;34390;-65
2022/04/06 10:10:04;;;;;;;6.70;4.15;;;;;;;16.31;51.78;99880.88;5570139;32;34472;-65
2022/04/06 10:13:07;;;;;;;8.82;4.28;;;;;;;16.22;50.84;99881.34;5569469;32;34223;-65
2022/04/06 10:16:31;;;;;;;7.22;4.30;;;;;;;16.33;50.71;99870.75;5568971;32;34627;-65
2022/04/06 10:19:42;;;;;;;6.85;4.03;;;;;;;16.40;50.80;99874.22;5568662;32;34303;-65
2022/04/06 10:22:59;;;;;;;6.93;4.47;;;;;;;16.52;50.76;99860.94;5568929;32;34968;-66
2022/04/06 10:26:20;;;;;;;7.57;4.40;;;;;;;16.72;51.42;99864.28;5568731;32;34804;-65
2022/04/06 10:29:25;;;;;;;5.35;3.83;;;;;;;16.86;50.52;99856.94;5568539;32;34297;-65
2022/04/06 10:32:36;;;;;;;6.87;3.95;;;;;;;17.04;49.11;99854.28;5568429;32;34875;-65
2022/04/06 10:35:39;;;;;;;8.38;4.62;;;;;;;17.18;47.93;99844.25;5568636;32;34974;-65
2022/04/06 10:39:07;;;;;;;7.00;4.43;;;;;;;17.18;48.91;99846.94;5554765;32;34092;-65
2022/04/06 10:42:13;;;;;;;6.55;4.40;;;;;;;17.22;48.14;99838.22;5568796;32;34266;-66
2022/04/06 10:45:29;;;;;;;5.60;3.75;;;;;;;17.38;45.99;99831.41;5568025;32;34825;-66
2022/04/06 10:48:32;;;;;;;8.38;4.07;;;;;;;18.03;45.98;99845.84;5568211;31;34404;-66
2022/04/06 10:51:38;;;;;;;7.05;4.20;;;;;;;19.46;41.20;99835.47;5568164;32;34635;-65
2022/04/06 10:54:42;;;;;;;6.53;4.07;;;;;;;21.50;37.79;99826.91;5554318;32;34150;-65
2022/04/06 10:58:01;;;;;;;5.40;3.67;;;;;;;21.40;36.25;99816.81;5568151;32;34318;-66
2022/04/06 11:01:16;;;;;;;6.82;3.80;;;;;;;24.92;32.01;99815.38;5570229;32;34122;-66
2022/04/06 11:04:21;;;;;;;6.37;3.85;;;;;;;25.80;29.96;99814.75;5570676;32;34227;-67
2022/04/06 11:11:32;;;;;;;6.68;3.22;;;;;;;25.47;28.91;99806.19;5571642;32;34644;-68
2022/04/06 11:14:35;;;;;;;5.10;3.10;;;;;;;26.40;26.00;99810.75;5570667;32;34352;-67
2022/04/06 11:17:39;;;;;;;5.30;3.10;;;;;;;26.36;27.40;99807.00;5570387;32;34935;-67
2022/04/06 11:20:42;;;;;;;5.47;3.30;;;;;;;29.14;24.13;99799.53;5570191;32;34203;-67
2022/04/06 11:23:45;;;;;;;9.00;2.90;;;;;;;29.30;22.56;99798.09;5570235;32;35010;-66
2022/04/06 11:26:49;;;;;;;3.70;2.78;;;;;;;28.78;22.35;99793.97;5570420;32;34344;-67
2022/04/06 11:30:08;;;;;;;6.68;2.87;;;;;;;28.52;22.83;99779.94;5556670;32;34169;-67
2022/04/06 11:33:11;;;;;;;5.40;3.00;;;;;;;29.91;22.52;99770.28;5570204;32;34194;-67
2022/04/06 11:36:15;;;;;;;6.43;3.03;;;;;;;26.34;25.15;99766.47;5570686;32;34943;-68
2022/04/06 11:39:18;;;;;;;5.87;3.60;;;;;;;24.59;29.08;99770.63;5570474;32;34264;-68
2022/04/06 11:42:21;;;;;;;4.47;2.60;;;;;;;24.02;30.11;99765.50;5570237;32;34294;-67
2022/04/06 11:45:28;;;;;;;5.47;3.05;;;;;;;24.03;29.86;99752.78;5569923;32;34461;-67
2022/04/06 11:48:39;;;;;;;4.57;2.85;;;;;;;25.28;28.44;99752.78;5570617;32;34259;-67
2022/04/06 11:51:44;;;;;;;5.05;3.42;;;;;;;28.09;23.57;99762.91;5570335;32;34576;-67
2022/04/06 11:54:55;;;;;;;6.47;3.83;;;;;;;29.93;21.38;99746.16;5570617;32;34874;-68
2022/04/06 11:58:00;;;;;;;6.30;4.37;;;;;;;30.20;21.31;99734.25;5556876;32;34304;-67
2022/04/06 12:01:05;;;;;;;7.30;4.25;;;;;;;29.08;22.12;99724.28;5570527;32;34293;-68
2022/04/06 12:04:16;;;;;;;5.85;4.03;;;;;;;28.85;22.85;99729.63;5557220;32;34187;-68
2022/04/06 12:07:19;;;;;;;7.22;4.30;;;;;;;30.01;21.88;99715.31;5570257;32;34222;-67
2022/04/06 12:10:22;;;;;;;7.75;4.87;;;;;;;28.88;23.62;99717.31;5570085;32;34974;-69
2022/04/06 12:13:29;;;;;;;9.30;5.00;;;;;;;29.08;22.84;99705.16;5570011;32;35465;-68
2022/04/06 12:16:33;;;;;;;9.68;4.97;;;;;;;30.12;22.09;99697.50;5556362;32;34264;-68
2022/04/06 12:19:36;;;;;;;6.55;5.00;;;;;;;29.71;22.63;99697.72;5569646;32;34841;-68
2022/04/06 12:22:39;;;;;;;7.90;5.03;;;;;;;31.20;20.43;99682.47;5570102;32;34390;-66
2022/04/06 12:25:42;;;;;;;5.90;4.70;;;;;;;32.36;19.81;99673.16;5570576;32;34913;-68
2022/04/06 12:28:50;;;;;;;7.15;4.50;;;;;;;34.34;17.62;99672.47;5556372;32;34519;-70
2022/04/06 12:31:53;;;;;;;7.78;5.00;;;;;;;33.21;18.15;99671.13;5556432;32;34479;-69
2022/04/06 12:34:56;;;;;;;8.25;5.05;;;;;;;32.49;20.50;99672.13;5570563;32;34224;-67
2022/04/06 12:37:59;;;;;;;9.30;6.05;;;;;;;32.05;20.05;99656.91;5570202;32;34843;-67
2022/04/06 12:41:14;;;;;;;8.90;4.57;;;;;;;32.50;19.29;99656.44;5556811;32;34159;-68
2022/04/06 12:44:24;;;;;;;7.00;4.22;;;;;;;31.03;19.75;99662.12;5570063;32;34260;-66
2022/04/06 12:47:28;;;;;;;6.43;4.20;;;;;;;30.34;20.29;99630.19;5570038;32;34232;-67
2022/04/06 12:50:36;;;;;;;7.35;5.30;;;;;;;32.42;19.44;99635.34;5569882;32;34273;-69
2022/04/06 12:53:50;;;;;;;9.70;5.78;;;;;;;31.85;19.93;99630.22;5570049;32;34177;-67
2022/04/06 12:57:25;;;;;;;10.82;5.87;;;;;;;29.60;21.61;99619.78;5569912;32;34214;-68
2022/04/06 13:00:30;;;;;;;8.25;5.45;;;;;;;28.08;24.39;99609.38;5555181;32;35657;-68
2022/04/06 13:03:32;;;;;;;9.13;5.65;;;;;;;29.42;22.60;99614.53;5569838;32;34249;-67
2022/04/06 13:06:35;;;;;;;7.78;5.45;;;;;;;29.59;22.83;99611.91;5569807;32;34258;-68
2022/04/06 13:09:58;;;;;;;9.00;4.70;;;;;;;28.68;22.87;99595.66;5569906;32;34814;-67
2022/04/06 13:13:02;;;;;;;7.07;4.75;;;;;;;28.24;23.25;99593.56;5569516;32;34705;-67
2022/04/06 13:16:05;;;;;;;10.27;5.60;;;;;;;30.81;20.78;99590.22;5569627;32;34895;-69
2022/04/06 13:19:08;;;;;;;7.03;4.35;;;;;;;31.17;20.04;99587.22;5569500;32;34253;-68
2022/04/06 13:22:10;;;;;;;8.18;4.35;;;;;;;29.55;21.31;99570.72;5568753;32;34968;-68
2022/04/06 13:25:15;;;;;;;7.03;4.37;;;;;;;30.60;20.95;99568.94;5569030;32;34154;-67
2022/04/06 13:28:17;;;;;;;7.75;4.95;;;;;;;31.18;20.23;99562.22;5569148;32;34887;-67
2022/04/06 13:31:20;;;;;;;7.62;4.10;;;;;;;30.74;20.65;99563.31;5569153;32;34618;-67
2022/04/06 13:34:24;;;;;;;5.12;4.00;;;;;;;29.88;21.02;99545.78;5569450;32;34863;-69
2022/04/06 13:37:27;;;;;;;6.85;4.60;;;;;;;28.21;22.76;99547.81;5555312;32;34174;-68
2022/04/06 13:40:31;;;;;;;5.35;4.07;;;;;;;28.95;21.84;99545.66;5569514;32;34274;-68
2022/04/06 13:43:35;;;;;;;9.20;4.68;;;;;;;28.85;22.26;99532.28;5568969;32;34348;-68
2022/04/06 13:46:37;;;;;;;6.75;4.35;;;;;;;29.75;21.47;99528.37;5568733;32;34389;-68
2022/04/06 13:49:40;;;;;;;7.25;3.90;;;;;;;30.92;19.93;99531.25;5568828;32;34879;-68
2022/04/06 13:52:43;;;;;;;6.00;3.65;;;;;;;32.19;18.34;99517.59;5568250;32;34455;-68
2022/04/06 13:55:46;;;;;;;6.53;4.22;;;;;;;30.02;20.12;99505.50;5568446;32;34806;-68
2022/04/06 13:58:48;;;;;;;6.90;4.25;;;;;;;27.80;22.88;99506.88;5568312;32;34212;-68
2022/04/06 14:01:51;;;;;;;8.20;4.47;;;;;;;27.93;22.79;99497.91;5568847;32;35005;-68
2022/04/06 14:04:54;;;;;;;7.18;4.28;;;;;;;28.01;23.76;99494.47;5568460;32;34351;-68
2022/04/06 14:07:58;;;;;;;5.80;3.72;;;;;;;28.31;22.40;99482.16;5555132;32;34329;-67
2022/04/06 14:11:01;;;;;;;6.28;4.35;;;;;;;27.81;22.81;99480.44;5568834;32;34267;-67
2022/04/06 14:14:05;;;;;;;10.10;5.20;;;;;;;28.68;22.52;99485.69;5568608;32;34883;-67
2022/04/06 14:17:11;;;;;;;6.47;3.90;;;;;;;26.44;25.00;99476.44;5567872;32;34208;-68
2022/04/06 14:20:14;;;;;;;5.93;4.25;;;;;;;27.88;23.59;99469.94;5568052;32;34832;-68
2022/04/06 14:23:17;;;;;;;7.57;4.25;;;;;;;28.18;22.98;99465.78;5568438;32;34838;-68
2022/04/06 14:26:25;;;;;;;10.82;5.05;;;;;;;27.72;23.42;99450.38;5568229;32;34605;-67
2022/04/06 14:29:28;;;;;;;6.75;4.93;;;;;;;27.05;24.40;99457.31;5554202;32;35232;-66
2022/04/06 14:32:31;;;;;;;9.40;5.20;;;;;;;23.69;29.26;99444.56;5568166;32;34507;-66
2022/04/06 14:35:34;;;;;;;7.50;4.93;;;;;;;23.36;30.58;99445.97;5570837;32;34299;-67
2022/04/06 14:38:36;;;;;;;8.85;5.30;;;;;;;23.13;31.05;99443.03;5569517;32;34972;-66
2022/04/06 14:41:39;;;;;;;11.32;5.95;;;;;;;22.22;32.48;99437.53;5570302;32;34120;-66